createdAt,value
2018-09-16T00:00:13.989Z,102008.11
2018-09-16T00:02:41.552Z,102005.81
2018-09-16T00:05:08.249Z,102007.23
2018-09-16T00:07:35.872Z,102007.02
2018-09-16T00:10:03.342Z,102007.23
2018-09-16T00:12:30.004Z,102013.03
2018-09-16T00:14:56.666Z,102015.69
2018-09-16T00:17:25.132Z,102013.42
2018-09-16T00:19:53.821Z,102010.28
2018-09-16T00:22:21.542Z,102010.63
2018-09-16T00:24:49.100Z,102017.02
2018-09-16T00:27:15.752Z,102022.11
2018-09-16T00:29:43.539Z,102021.84
2018-09-16T00:32:15.920Z,102018.11
2018-09-16T00:34:51.685Z,102017.13
2018-09-16T00:37:19.160Z,102018.95
2018-09-16T00:39:45.824Z,102024.89
2018-09-16T00:42:13.377Z,102023.91
2018-09-16T00:44:40.999Z,102026.56
2018-09-16T00:47:08.605Z,102031.90
2018-09-16T00:49:36.329Z,102034.89
2018-09-16T00:52:03.933Z,102035.26
2018-09-16T00:54:31.596Z,102036.31
2018-09-16T00:56:59.265Z,102035.38
2018-09-16T00:59:26.879Z,102031.54
2018-09-16T01:01:54.395Z,102035.26
2018-09-16T01:04:21.065Z,102027.16
2018-09-16T01:06:48.712Z,102028.34
2018-09-16T01:09:15.907Z,102023.78
2018-09-16T01:11:42.547Z,102021.13
2018-09-16T01:14:10.380Z,102024.98
2018-09-16T01:16:37.987Z,102027.16
2018-09-16T01:19:05.588Z,102029.82
2018-09-16T01:21:32.259Z,102034.28
2018-09-16T01:23:59.218Z,102031.41
2018-09-16T01:26:25.899Z,102031.75
2018-09-16T01:28:55.110Z,102028.34
2018-09-16T01:31:24.271Z,102025.59
2018-09-16T01:33:50.923Z,102019.30
2018-09-16T01:36:17.625Z,102020.63
2018-09-16T01:38:50.301Z,102019.66
2018-09-16T01:41:17.956Z,102024.13
2018-09-16T01:43:44.616Z,102028.47
2018-09-16T01:46:12.233Z,102025.09
2018-09-16T01:48:38.898Z,102028.59
2018-09-16T01:51:06.413Z,102024.97
2018-09-16T01:53:33.072Z,102026.30
2018-09-16T01:56:01.033Z,102028.69
2018-09-16T01:58:27.761Z,102024.36
2018-09-16T02:00:55.292Z,102024.34
2018-09-16T02:03:24.256Z,102028.95
2018-09-16T02:05:54.915Z,102025.94
2018-09-16T02:08:25.448Z,102024.25
2018-09-16T02:10:52.116Z,102030.02
2018-09-16T02:13:18.808Z,102024.70
2018-09-16T02:15:46.509Z,102024.25
2018-09-16T02:18:14.156Z,102025.19
2018-09-16T02:20:40.965Z,102021.32
2018-09-16T02:23:09.122Z,102017.61
2018-09-16T02:25:36.736Z,102015.89
2018-09-16T02:28:04.396Z,102022.92
2018-09-16T02:30:31.994Z,102020.96
2018-09-16T02:32:59.604Z,102019.03
2018-09-16T02:35:27.293Z,102019.03
2018-09-16T02:37:54.753Z,102018.55
2018-09-16T02:40:23.849Z,102024.61
2018-09-16T02:42:51.457Z,102019.39
2018-09-16T02:45:18.159Z,102021.11
2018-09-16T02:47:44.854Z,102017.00
2018-09-16T02:50:11.536Z,102017.61
2018-09-16T02:52:39.184Z,102019.39
2018-09-16T02:55:05.894Z,102018.45
2018-09-16T02:57:33.453Z,102017.70
2018-09-16T03:00:00.922Z,102020.84
2018-09-16T03:02:28.405Z,102014.68
2018-09-16T03:04:57.040Z,102015.16
2018-09-16T03:07:25.676Z,102010.82
2018-09-16T03:09:54.890Z,102011.66
2018-09-16T03:12:21.536Z,102008.52
2018-09-16T03:14:49.117Z,102008.16
2018-09-16T03:17:16.678Z,102000.28
2018-09-16T03:19:44.363Z,102001.04
2018-09-16T03:22:11.940Z,101999.11
2018-09-16T03:24:39.638Z,102001.26
2018-09-16T03:27:07.329Z,101997.27
2018-09-16T03:29:34.945Z,101991.47
2018-09-16T03:32:02.504Z,101995.09
2018-09-16T03:34:29.148Z,101998.48
2018-09-16T03:36:56.685Z,101995.94
2018-09-16T03:39:25.237Z,101992.71
2018-09-16T03:41:52.032Z,101989.30
2018-09-16T03:44:18.688Z,101992.32
2018-09-16T03:46:46.134Z,101992.80
2018-09-16T03:49:13.684Z,101988.81
2018-09-16T03:51:40.344Z,101983.98
2018-09-16T03:54:07.048Z,101989.09
2018-09-16T03:56:34.689Z,101988.24
2018-09-16T03:59:02.323Z,101987.48
2018-09-16T04:01:29.828Z,101991.84
2018-09-16T04:03:56.482Z,101990.89
2018-09-16T04:06:25.375Z,101991.26
2018-09-16T04:08:54.400Z,101984.95
2018-09-16T04:11:21.889Z,101987.97
2018-09-16T04:13:48.593Z,101997.05
2018-09-16T04:16:16.062Z,101989.32
2018-09-16T04:18:42.933Z,101989.23
2018-09-16T04:21:09.809Z,101985.67
2018-09-16T04:23:39.787Z,101980.84
2018-09-16T04:26:08.439Z,101983.63
2018-09-16T04:28:35.108Z,101983.51
2018-09-16T04:31:01.773Z,101982.45
2018-09-16T04:33:28.449Z,101984.13
2018-09-16T04:35:56.028Z,101976.28
2018-09-16T04:38:23.485Z,101979.52
2018-09-16T04:40:51.833Z,101978.80
2018-09-16T04:43:18.502Z,101978.19
2018-09-16T04:45:45.863Z,101974.70
2018-09-16T04:48:12.504Z,101979.52
2018-09-16T04:50:39.166Z,101979.16
2018-09-16T04:53:05.841Z,101976.63
2018-09-16T04:55:46.945Z,101985.17
2018-09-16T04:58:13.708Z,101983.48
2018-09-16T05:00:40.360Z,101987.34
2018-09-16T05:03:07.036Z,101982.78
2018-09-16T05:05:34.188Z,101991.59
2018-09-16T05:08:01.652Z,101996.78
2018-09-16T05:10:28.896Z,101994.73
2018-09-16T05:12:55.665Z,101997.48
2018-09-16T05:15:25.079Z,101997.61
2018-09-16T05:17:54.464Z,102000.75
2018-09-16T05:20:21.121Z,102004.86
2018-09-16T05:22:48.943Z,102007.52
2018-09-16T05:25:15.584Z,102009.69
2018-09-16T05:27:42.275Z,102014.88
2018-09-16T05:30:09.860Z,102015.00
2018-09-16T05:32:37.481Z,102016.08
2018-09-16T05:35:05.045Z,102019.34
2018-09-16T05:37:32.805Z,102015.36
2018-09-16T05:40:00.466Z,102018.73
2018-09-16T05:42:28.102Z,102023.33
2018-09-16T05:44:55.716Z,102023.54
2018-09-16T05:47:24.908Z,102025.47
2018-09-16T05:49:51.952Z,102029.94
2018-09-16T05:52:18.648Z,102029.70
2018-09-16T05:54:46.142Z,102032.84
2018-09-16T05:57:13.747Z,102035.97
2018-09-16T05:59:41.413Z,102042.05
2018-09-16T06:02:09.233Z,102042.05
2018-09-16T06:04:36.879Z,102033.95
2018-09-16T06:07:04.494Z,102037.23
2018-09-16T06:09:32.100Z,102039.89
2018-09-16T06:11:59.715Z,102038.20
2018-09-16T06:14:27.294Z,102048.44
2018-09-16T06:16:55.140Z,102048.44
2018-09-16T06:19:23.056Z,102048.44
2018-09-16T06:21:50.757Z,102052.81
2018-09-16T06:24:18.389Z,102051.36
2018-09-16T06:26:45.061Z,102056.31
2018-09-16T06:29:11.720Z,102058.84
2018-09-16T06:31:39.324Z,102059.69
2018-09-16T06:34:05.969Z,102067.54
2018-09-16T06:36:33.592Z,102064.03
2018-09-16T06:39:00.336Z,102069.95
2018-09-16T06:41:27.122Z,102065.84
2018-09-16T06:43:56.280Z,102066.70
2018-09-16T06:46:25.896Z,102068.17
2018-09-16T06:48:54.595Z,102070.95
2018-09-16T06:51:21.273Z,102070.59
2018-09-16T06:53:47.984Z,102077.25
2018-09-16T06:56:14.638Z,102075.80
2018-09-16T06:58:41.465Z,102068.31
2018-09-16T07:01:09.028Z,102071.73
2018-09-16T07:03:35.676Z,102069.92
2018-09-16T07:06:02.318Z,102070.85
2018-09-16T07:08:29.061Z,102073.78
2018-09-16T07:10:56.722Z,102071.81
2018-09-16T07:13:25.047Z,102076.65
2018-09-16T07:15:53.396Z,102077.49
2018-09-16T07:18:20.892Z,102067.84
2018-09-16T07:20:47.732Z,102067.50
2018-09-16T07:23:15.456Z,102063.63
2018-09-16T07:25:43.227Z,102066.29
2018-09-16T07:28:10.780Z,102061.70
2018-09-16T07:30:38.484Z,102057.86
2018-09-16T07:33:06.052Z,102058.11
2018-09-16T07:35:32.805Z,102062.45
2018-09-16T07:38:00.452Z,102062.47
2018-09-16T07:40:27.728Z,102069.91
2018-09-16T07:42:56.288Z,102063.80
2018-09-16T07:45:26.320Z,102073.55
2018-09-16T07:47:55.096Z,102068.33
2018-09-16T07:50:24.093Z,102070.02
2018-09-16T07:52:51.669Z,102075.59
2018-09-16T07:55:19.172Z,102076.88
2018-09-16T07:57:46.881Z,102081.14
2018-09-16T08:00:13.522Z,102077.89
2018-09-16T08:02:40.232Z,102080.20
2018-09-16T08:05:07.806Z,102084.69
2018-09-16T08:07:35.509Z,102082.44
2018-09-16T08:10:02.169Z,102077.87
2018-09-16T08:12:29.820Z,102082.94
2018-09-16T08:14:56.505Z,102083.07
2018-09-16T08:17:24.937Z,102083.82
2018-09-16T08:19:53.340Z,102083.69
2018-09-16T08:22:20.039Z,102085.15
2018-09-16T08:24:46.740Z,102083.82
2018-09-16T08:27:14.283Z,102080.89
2018-09-16T08:29:41.966Z,102074.86
2018-09-16T08:32:09.519Z,102075.92
2018-09-16T08:34:36.167Z,102079.07
2018-09-16T08:37:02.812Z,102075.66
2018-09-16T08:39:30.360Z,102074.59
2018-09-16T08:41:57.861Z,102077.25
2018-09-16T08:44:25.682Z,102068.52
2018-09-16T08:46:55.069Z,102073.84
2018-09-16T08:49:21.780Z,102071.57
2018-09-16T08:51:49.778Z,102065.28
2018-09-16T08:54:16.457Z,102068.91
2018-09-16T08:56:43.088Z,102070.60
2018-09-16T08:59:09.722Z,102073.35
2018-09-16T09:01:37.162Z,102063.59
2018-09-16T09:04:03.863Z,102059.21
2018-09-16T09:06:31.345Z,102059.34
2018-09-16T09:08:57.984Z,102060.31
2018-09-16T09:11:25.638Z,102050.25
2018-09-16T09:13:55.018Z,102053.89
2018-09-16T09:16:21.782Z,102048.34
2018-09-16T09:18:48.424Z,102047.95
2018-09-16T09:21:16.205Z,102041.08
2018-09-16T09:23:42.922Z,102035.98
2018-09-16T09:26:09.713Z,102029.72
2018-09-16T09:28:37.545Z,102030.92
2018-09-16T09:31:04.206Z,102028.27
2018-09-16T09:33:32.454Z,102026.67
2018-09-16T09:36:02.044Z,102024.50
2018-09-16T09:38:28.725Z,102026.19
2018-09-16T09:40:56.835Z,102025.25
2018-09-16T09:43:25.358Z,102013.28
2018-09-16T09:45:52.018Z,102013.02
2018-09-16T09:48:19.706Z,102015.19
2018-09-16T09:50:46.408Z,102012.66
2018-09-16T09:53:13.169Z,102012.66
2018-09-16T09:55:39.904Z,102012.30
2018-09-16T09:58:07.585Z,102009.64
2018-09-16T10:00:40.049Z,102005.66
2018-09-16T10:03:07.821Z,102003.22
2018-09-16T10:05:34.509Z,102003.71
2018-09-16T10:08:02.249Z,101999.72
2018-09-16T10:10:29.059Z,101996.70
2018-09-16T10:12:55.725Z,101994.17
2018-09-16T10:15:23.601Z,101989.92
2018-09-16T10:17:51.120Z,101988.95
2018-09-16T10:20:17.944Z,101994.62
2018-09-16T10:22:44.649Z,101992.84
2018-09-16T10:25:12.172Z,101985.71
2018-09-16T10:27:39.266Z,101979.65
2018-09-16T10:30:05.913Z,101976.02
2018-09-16T10:32:32.574Z,101972.52
2018-09-16T10:34:59.209Z,101971.19
2018-09-16T10:37:25.867Z,101964.54
2018-09-16T10:39:53.208Z,101962.72
2018-09-16T10:42:20.656Z,101958.73
2018-09-16T10:44:47.315Z,101959.70
2018-09-16T10:47:13.966Z,101951.86
2018-09-16T10:49:40.763Z,101955.48
2018-09-16T10:52:08.361Z,101954.74
2018-09-16T10:54:35.102Z,101955.00
2018-09-16T10:57:01.868Z,101951.02
2018-09-16T10:59:28.650Z,101945.31
2018-09-16T11:01:56.068Z,101946.64
2018-09-16T11:04:23.643Z,101943.14
2018-09-16T11:06:50.341Z,101949.30
2018-09-16T11:09:17.913Z,101945.44
2018-09-16T11:11:44.612Z,101946.77
2018-09-16T11:14:12.272Z,101941.94
2018-09-16T11:16:39.982Z,101945.92
2018-09-16T11:19:06.693Z,101938.79
2018-09-16T11:21:34.182Z,101939.15
2018-09-16T11:24:00.923Z,101935.64
2018-09-16T11:26:28.532Z,101936.62
2018-09-16T11:28:57.435Z,101936.27
2018-09-16T11:31:26.349Z,101932.76
2018-09-16T11:33:55.232Z,101926.34
2018-09-16T11:36:24.925Z,101919.95
2018-09-16T11:38:51.576Z,101909.06
2018-09-16T11:41:18.302Z,101910.03
2018-09-16T11:43:46.101Z,101913.66
2018-09-16T11:46:12.756Z,101908.12
2018-09-16T11:48:40.409Z,101903.51
2018-09-16T11:51:07.920Z,101900.61
2018-09-16T11:53:35.452Z,101899.66
2018-09-16T11:56:03.068Z,101900.12
2018-09-16T11:58:30.712Z,101901.97
2018-09-16T12:00:57.365Z,101896.63
2018-09-16T12:03:25.148Z,101890.34
2018-09-16T12:05:54.660Z,101893.35
2018-09-16T12:08:21.320Z,101886.97
2018-09-16T12:10:48.973Z,101886.83
2018-09-16T12:13:15.640Z,101885.64
2018-09-16T12:15:42.293Z,101885.38
2018-09-16T12:18:08.948Z,101883.55
2018-09-16T12:20:35.588Z,101874.40
2018-09-16T12:23:02.265Z,101876.20
2018-09-16T12:25:28.927Z,101876.47
2018-09-16T12:27:56.089Z,101876.69
2018-09-16T12:30:24.713Z,101871.27
2018-09-16T12:32:53.258Z,101866.27
2018-09-16T12:35:20.941Z,101869.90
2018-09-16T12:37:47.581Z,101866.63
2018-09-16T12:40:14.316Z,101872.57
2018-09-16T12:42:41.993Z,101866.05
2018-09-16T12:45:08.638Z,101856.36
2018-09-16T12:47:38.281Z,101850.20
2018-09-16T12:50:06.168Z,101839.69
2018-09-16T12:52:32.802Z,101841.02
2018-09-16T12:55:00.384Z,101835.70
2018-09-16T12:57:27.916Z,101831.58
2018-09-16T12:59:56.052Z,101836.05
2018-09-16T13:02:25.683Z,101829.19
2018-09-16T13:04:55.152Z,101826.77
2018-09-16T13:07:23.522Z,101821.94
2018-09-16T13:09:51.176Z,101820.60
2018-09-16T13:12:18.912Z,101818.66
2018-09-16T13:14:45.593Z,101813.11
2018-09-16T13:17:13.096Z,101812.27
2018-09-16T13:19:40.655Z,101816.49
2018-09-16T13:22:08.224Z,101813.83
2018-09-16T13:24:35.876Z,101816.36
2018-09-16T13:27:03.566Z,101810.55
2018-09-16T13:29:30.409Z,101809.84
2018-09-16T13:31:58.029Z,101805.86
2018-09-16T13:34:25.728Z,101807.67
2018-09-16T13:36:54.804Z,101801.12
2018-09-16T13:39:23.290Z,101798.59
2018-09-16T13:41:49.968Z,101797.62
2018-09-16T13:44:17.536Z,101793.15
2018-09-16T13:46:45.300Z,101792.80
2018-09-16T13:49:11.972Z,101794.61
2018-09-16T13:51:38.617Z,101794.61
2018-09-16T13:54:06.046Z,101794.61
2018-09-16T13:56:33.697Z,101785.80
2018-09-16T13:59:01.388Z,101784.11
2018-09-16T14:01:28.353Z,101783.13
2018-09-16T14:03:55.925Z,101769.84
2018-09-16T14:06:25.165Z,101772.01
2018-09-16T14:08:51.808Z,101761.02
2018-09-16T14:11:19.509Z,101764.66
2018-09-16T14:13:47.104Z,101757.52
2018-09-16T14:16:13.784Z,101757.16
2018-09-16T14:18:41.430Z,101754.51
2018-09-16T14:21:08.165Z,101761.61
2018-09-16T14:23:34.805Z,101759.34
2018-09-16T14:26:01.793Z,101753.53
2018-09-16T14:28:29.412Z,101753.17
2018-09-16T14:30:57.064Z,101739.14
2018-09-16T14:33:27.091Z,101743.97
2018-09-16T14:35:56.612Z,101736.13
2018-09-16T14:38:24.340Z,101735.29
2018-09-16T14:40:52.064Z,101731.79
2018-09-16T14:43:18.717Z,101728.74
2018-09-16T14:45:45.405Z,101730.81
2018-09-16T14:48:12.089Z,101725.49
2018-09-16T14:50:38.737Z,101729.00
2018-09-16T14:53:05.375Z,101723.68
2018-09-16T14:55:32.262Z,101722.84
2018-09-16T14:57:58.917Z,101715.22
2018-09-16T15:00:25.765Z,101719.55
2018-09-16T15:02:53.150Z,101725.72
2018-09-16T15:05:19.793Z,101720.31
2018-09-16T15:07:46.450Z,101718.11
2018-09-16T15:10:13.183Z,101712.44
2018-09-16T15:12:39.957Z,101704.22
2018-09-16T15:15:06.600Z,101699.88
2018-09-16T15:17:33.244Z,101703.39
2018-09-16T15:19:59.879Z,101693.59
2018-09-16T15:22:26.520Z,101694.08
2018-09-16T15:24:54.718Z,101695.27
2018-09-16T15:27:21.540Z,101688.76
2018-09-16T15:29:49.045Z,101692.02
2018-09-16T15:32:16.686Z,101685.36
2018-09-16T15:34:44.308Z,101682.22
2018-09-16T15:37:10.952Z,101679.20
2018-09-16T15:39:37.917Z,101679.34
2018-09-16T15:42:04.556Z,101683.19
2018-09-16T15:44:32.048Z,101684.03
2018-09-16T15:46:59.639Z,101682.98
2018-09-16T15:49:27.236Z,101678.37
2018-09-16T15:51:56.129Z,101672.91
2018-09-16T15:54:25.720Z,101671.86
2018-09-16T15:56:54.418Z,101674.02
2018-09-16T15:59:21.182Z,101672.09
2018-09-16T16:01:48.773Z,101667.97
2018-09-16T16:04:16.352Z,101670.87
2018-09-16T16:06:44.037Z,101668.70
2018-09-16T16:09:12.183Z,101666.54
2018-09-16T16:11:40.323Z,101670.28
2018-09-16T16:14:07.837Z,101664.61
2018-09-16T16:16:35.765Z,101666.64
2018-09-16T16:19:03.252Z,101667.86
2018-09-16T16:21:30.924Z,101666.29
2018-09-16T16:23:58.500Z,101658.94
2018-09-16T16:26:26.165Z,101661.21
2018-09-16T16:28:56.558Z,101657.61
2018-09-16T16:31:25.252Z,101650.96
2018-09-16T16:33:53.808Z,101655.44
2018-09-16T16:36:20.833Z,101656.77
2018-09-16T16:38:48.384Z,101661.46
2018-09-16T16:41:16.020Z,101666.42
2018-09-16T16:43:43.632Z,101669.44
2018-09-16T16:46:11.249Z,101666.07
2018-09-16T16:48:38.836Z,101664.75
2018-09-16T16:51:05.481Z,101667.75
2018-09-16T16:53:32.124Z,101669.08
2018-09-16T16:56:00.059Z,101667.27
2018-09-16T16:58:26.913Z,101665.69
2018-09-16T17:00:55.589Z,101662.08
2018-09-16T17:03:23.531Z,101669.57
2018-09-16T17:05:50.393Z,101663.79
2018-09-16T17:08:17.012Z,101660.86
2018-09-16T17:10:43.646Z,101664.36
2018-09-16T17:13:11.225Z,101660.37
2018-09-16T17:15:37.860Z,101660.02
2018-09-16T17:18:05.429Z,101667.29
2018-09-16T17:20:32.069Z,101668.98
2018-09-16T17:22:58.684Z,101664.62
2018-09-16T17:25:26.005Z,101663.19
2018-09-16T17:27:55.676Z,101666.20
2018-09-16T17:30:23.658Z,101665.11
2018-09-16T17:32:51.261Z,101668.23
2018-09-16T17:35:18.792Z,101668.86
2018-09-16T17:37:45.469Z,101671.52
2018-09-16T17:40:13.208Z,101663.30
2018-09-16T17:42:40.760Z,101670.30
2018-09-16T17:45:08.415Z,101667.53
2018-09-16T17:47:36.027Z,101662.34
2018-09-16T17:50:02.712Z,101672.02
2018-09-16T17:52:29.369Z,101671.16
2018-09-16T17:54:57.060Z,101667.41
2018-09-16T17:57:25.828Z,101662.58
2018-09-16T17:59:55.423Z,101654.84
2018-09-16T18:02:25.051Z,101661.00
2018-09-16T18:04:51.673Z,101662.34
2018-09-16T18:07:19.367Z,101662.08
2018-09-16T18:09:46.037Z,101661.74
2018-09-16T18:12:13.658Z,101663.05
2018-09-16T18:14:41.319Z,101659.30
2018-09-16T18:17:09.119Z,101669.23
2018-09-16T18:19:36.681Z,101663.80
2018-09-16T18:22:05.075Z,101659.11
2018-09-16T18:24:32.757Z,101653.07
2018-09-16T18:26:59.407Z,101657.77
2018-09-16T18:29:26.115Z,101659.06
2018-09-16T18:31:53.609Z,101661.70
2018-09-16T18:34:20.401Z,101654.09
2018-09-16T18:36:47.276Z,101659.38
2018-09-16T18:39:13.912Z,101655.98
2018-09-16T18:41:40.622Z,101657.67
2018-09-16T18:44:07.260Z,101654.52
2018-09-16T18:46:34.864Z,101662.64
2018-09-16T18:49:01.905Z,101660.68
2018-09-16T18:51:29.484Z,101662.50
2018-09-16T18:53:56.115Z,101665.30
2018-09-16T18:56:25.951Z,101667.95
2018-09-16T18:58:55.703Z,101667.70
2018-09-16T19:01:23.344Z,101667.14
2018-09-16T19:03:51.087Z,101675.57
2018-09-16T19:06:17.681Z,101675.22
2018-09-16T19:08:44.321Z,101674.24
2018-09-16T19:11:10.957Z,101677.50
2018-09-16T19:13:38.428Z,101676.30
2018-09-16T19:16:05.101Z,101677.98
2018-09-16T19:18:31.737Z,101675.82
2018-09-16T19:20:59.307Z,101677.50
2018-09-16T19:23:26.864Z,101675.47
2018-09-16T19:25:54.526Z,101674.14
2018-09-16T19:28:21.213Z,101676.90
2018-09-16T19:30:48.741Z,101678.37
2018-09-16T19:33:16.374Z,101675.95
2018-09-16T19:35:43.037Z,101670.91
2018-09-16T19:38:09.704Z,101673.05
2018-09-16T19:40:36.402Z,101676.68
2018-09-16T19:43:03.172Z,101673.67
2018-09-16T19:45:30.717Z,101675.95
2018-09-16T19:47:57.417Z,101675.70
2018-09-16T19:50:25.412Z,101673.40
2018-09-16T19:52:52.064Z,101673.28
2018-09-16T19:55:18.916Z,101668.81
2018-09-16T19:57:45.612Z,101675.95
2018-09-16T20:00:13.412Z,101668.95
2018-09-16T20:02:40.000Z,101662.44
2018-09-16T20:05:06.705Z,101666.17
2018-09-16T20:07:33.360Z,101664.98
2018-09-16T20:10:01.069Z,101672.94
2018-09-16T20:12:27.780Z,101677.08
2018-09-16T20:14:55.118Z,101673.69
2018-09-16T20:17:21.780Z,101675.98
2018-09-16T20:19:48.490Z,101665.95
2018-09-16T20:22:15.430Z,101666.80
2018-09-16T20:24:42.120Z,101663.89
2018-09-16T20:27:08.850Z,101661.23
2018-09-16T20:29:35.467Z,101654.84
2018-09-16T20:32:02.488Z,101654.73
2018-09-16T20:34:29.390Z,101652.81
2018-09-16T20:36:56.213Z,101650.14
2018-09-16T20:39:23.912Z,101650.14
2018-09-16T20:41:50.604Z,101651.22
2018-09-16T20:44:17.240Z,101648.80
2018-09-16T20:46:44.777Z,101647.63
2018-09-16T20:49:12.328Z,101644.23
2018-09-16T20:51:38.956Z,101641.44
2018-09-16T20:54:05.612Z,101640.94
2018-09-16T20:56:32.340Z,101646.97
2018-09-16T20:58:59.177Z,101644.20
2018-09-16T21:01:27.264Z,101642.65
2018-09-16T21:03:53.949Z,101644.81
2018-09-16T21:06:20.612Z,101644.33
2018-09-16T21:08:48.632Z,101646.39
2018-09-16T21:11:15.916Z,101656.31
2018-09-16T21:13:42.593Z,101647.36
2018-09-16T21:16:09.406Z,101641.07
2018-09-16T21:18:36.077Z,101644.47
2018-09-16T21:21:02.917Z,101639.39
2018-09-16T21:23:29.599Z,101634.70
2018-09-16T21:25:56.785Z,101635.91
2018-09-16T21:28:25.064Z,101642.30
2018-09-16T21:30:51.709Z,101640.39
2018-09-16T21:33:19.396Z,101642.92
2018-09-16T21:35:46.028Z,101646.80
2018-09-16T21:38:12.776Z,101646.29
2018-09-16T21:40:39.416Z,101641.34
2018-09-16T21:43:06.171Z,101637.50
2018-09-16T21:45:32.820Z,101630.00
2018-09-16T21:47:59.497Z,101630.22
2018-09-16T21:50:26.325Z,101630.15
2018-09-16T21:52:54.172Z,101636.66
2018-09-16T21:55:23.100Z,101630.22
2018-09-16T21:57:49.793Z,101631.19
2018-09-16T22:00:16.523Z,101625.67
2018-09-16T22:02:43.208Z,101636.50
2018-09-16T22:05:09.846Z,101634.20
2018-09-16T22:07:36.500Z,101633.36
2018-09-16T22:10:03.209Z,101631.43
2018-09-16T22:12:29.852Z,101630.02
2018-09-16T22:14:56.506Z,101622.25
2018-09-16T22:17:24.056Z,101627.56
2018-09-16T22:19:51.662Z,101624.34
2018-09-16T22:22:19.303Z,101615.73
2018-09-16T22:24:45.961Z,101620.84
2018-09-16T22:27:13.548Z,101617.42
2018-09-16T22:29:40.187Z,101615.25
2018-09-16T22:32:07.851Z,101620.08
2018-09-16T22:34:35.417Z,101618.88
2018-09-16T22:37:02.906Z,101618.04
2018-09-16T22:39:29.552Z,101614.89
2018-09-16T22:41:57.212Z,101611.62
2018-09-16T22:44:26.535Z,101616.37
2018-09-16T22:46:53.604Z,101612.59
2018-09-16T22:49:21.244Z,101612.34
2018-09-16T22:51:48.916Z,101611.97
2018-09-16T22:54:16.544Z,101613.72
2018-09-16T22:56:44.182Z,101612.73
2018-09-16T22:59:10.828Z,101614.55
2018-09-16T23:01:37.481Z,101613.22
2018-09-16T23:04:04.133Z,101610.29
2018-09-16T23:06:31.679Z,101613.57
2018-09-16T23:09:04.000Z,101607.28
2018-09-16T23:11:30.682Z,101609.47
2018-09-16T23:13:57.345Z,101601.50
2018-09-16T23:16:23.985Z,101602.59
2018-09-16T23:18:51.496Z,101597.73
2018-09-16T23:21:18.146Z,101600.52
2018-09-16T23:23:45.750Z,101592.55
2018-09-16T23:26:13.557Z,101585.31
2018-09-16T23:28:40.211Z,101588.44
2018-09-16T23:31:06.855Z,101586.03
2018-09-16T23:33:33.504Z,101587.98
2018-09-16T23:36:01.066Z,101584.45
2018-09-16T23:38:27.700Z,101585.32
2018-09-16T23:40:55.629Z,101588.44
2018-09-16T23:43:23.308Z,101582.91
2018-09-16T23:45:49.960Z,101583.61
2018-09-16T23:48:17.469Z,101581.69
2018-09-16T23:50:45.064Z,101576.86
2018-09-16T23:53:11.732Z,101565.02
2018-09-16T23:55:39.182Z,101568.88
2018-09-16T23:58:05.832Z,101563.57
